Time;durP1;ratioP1;P1;durP2;ratioP2;P2;SDS_P1;SDS_P2;PMS_P1;PMS_P2;Temp;Humidity;BMP_temperature;BMP_pressure;BME280_temperature;BME280_humidity;BME280_pressure;Samples;Min_cycle;Max_cycle;Signal;HPM_P1;HPM_P2
2023/07/05 00:00:25;;;;;;;1.65;0.50;;;;;;;16.31;85.75;100388.47;4978128;28;20101;-62
2023/07/05 00:02:52;;;;;;;0.52;0.40;;;;;;;16.28;85.72;100379.16;4977917;28;20062;-62
2023/07/05 00:05:17;;;;;;;0.55;0.43;;;;;;;16.16;86.78;100377.69;4967611;28;20049;-61
2023/07/05 00:07:42;;;;;;;0.95;0.40;;;;;;;16.04;87.24;100386.34;4973595;28;20047;-63
2023/07/05 00:10:08;;;;;;;1.20;0.50;;;;;;;15.84;88.16;100379.84;4968218;28;20384;-60
2023/07/05 00:12:34;;;;;;;1.75;0.55;;;;;;;15.87;88.53;100392.63;4972869;28;20134;-61
2023/07/05 00:14:59;;;;;;;1.85;0.55;;;;;;;15.89;88.87;100387.56;4973765;28;20117;-61
2023/07/05 00:17:25;;;;;;;0.50;0.40;;;;;;;15.91;89.20;100377.06;4979570;28;20055;-60
2023/07/05 00:19:52;;;;;;;0.60;0.50;;;;;;;16.01;88.64;100367.31;4970729;28;20573;-60
2023/07/05 00:22:17;;;;;;;0.32;0.32;;;;;;;16.04;88.98;100375.47;4978249;28;20561;-62
2023/07/05 00:24:43;;;;;;;0.75;0.60;;;;;;;15.97;89.25;100372.78;4971509;28;20035;-64
2023/07/05 00:27:08;;;;;;;0.47;0.40;;;;;;;16.06;89.66;100378.56;4979869;28;20543;-63
2023/07/05 00:29:33;;;;;;;0.30;0.30;;;;;;;16.14;89.43;100371.88;4970855;28;20045;-61
2023/07/05 00:31:59;;;;;;;0.63;0.30;;;;;;;16.24;89.47;100378.41;4981239;28;20962;-59
2023/07/05 00:34:24;;;;;;;3.75;0.45;;;;;;;16.25;89.15;100372.59;4984014;28;20039;-63
2023/07/05 00:36:50;;;;;;;0.47;0.32;;;;;;;16.30;88.84;100367.91;4969428;28;20477;-61
2023/07/05 00:39:15;;;;;;;0.40;0.40;;;;;;;16.30;88.54;100365.94;4970662;28;20042;-63
2023/07/05 00:41:41;;;;;;;0.25;0.25;;;;;;;16.32;88.24;100363.59;4963971;28;20085;-61
2023/07/05 00:44:07;;;;;;;0.30;0.30;;;;;;;16.26;88.75;100362.47;4976739;28;20406;-61
2023/07/05 00:46:35;;;;;;;1.05;0.55;;;;;;;16.30;88.83;100363.22;4974316;28;20065;-61
2023/07/05 00:49:03;;;;;;;0.60;0.60;;;;;;;16.32;89.32;100360.88;4970574;28;20031;-62
2023/07/05 00:52:00;;;;;;;1.58;0.50;;;;;;;16.34;88.91;100352.34;4976111;28;20070;-61
2023/07/05 00:54:31;;;;;;;1.00;0.52;;;;;;;16.35;89.40;100357.38;4947054;28;20491;-61
2023/07/05 00:57:05;;;;;;;0.90;0.45;;;;;;;16.47;88.73;100350.69;4974561;28;20578;-62
2023/07/05 00:59:38;;;;;;;1.75;0.88;;;;;;;16.56;88.83;100357.22;4974067;28;20522;-65
2023/07/05 01:02:03;;;;;;;0.73;0.63;;;;;;;16.65;88.14;100354.03;4972854;28;20046;-61
2023/07/05 01:04:32;;;;;;;0.52;0.52;;;;;;;16.69;88.05;100349.31;4971039;28;20033;-66
2023/07/05 01:06:58;;;;;;;0.90;0.65;;;;;;;16.74;87.77;100346.19;4977389;28;20484;-62
2023/07/05 01:09:26;;;;;;;0.60;0.55;;;;;;;16.82;87.20;100332.09;4977980;28;20050;-61
2023/07/05 01:12:17;;;;;;;2.58;0.70;;;;;;;16.85;87.35;100325.88;4973944;28;20029;-62
2023/07/05 01:15:04;;;;;;;0.35;0.35;;;;;;;16.90;87.12;100314.53;4972822;28;20129;-61
2023/07/05 01:17:47;;;;;;;1.00;0.68;;;;;;;16.96;86.62;100317.56;4963419;28;20125;-62
2023/07/05 01:20:21;;;;;;;0.68;0.65;;;;;;;16.95;86.76;100313.31;4974087;28;20041;-62
2023/07/05 01:22:56;;;;;;;0.88;0.68;;;;;;;16.92;86.96;100317.63;4972317;28;20034;-61
2023/07/05 01:25:45;;;;;;;1.30;0.93;;;;;;;16.91;87.40;100312.59;4973050;28;20053;-63
2023/07/05 01:28:14;;;;;;;1.42;0.85;;;;;;;16.90;88.56;100311.03;4961119;28;20034;-63
2023/07/05 01:30:55;;;;;;;2.70;1.10;;;;;;;16.98;88.39;100307.81;4972471;28;20122;-62
2023/07/05 01:34:03;;;;;;;2.60;0.85;;;;;;;17.03;88.25;100310.09;4954910;28;20038;-66
2023/07/05 01:36:30;;;;;;;1.17;0.80;;;;;;;17.02;88.02;100305.06;4975224;28;20066;-62
2023/07/05 01:38:55;;;;;;;4.30;1.05;;;;;;;17.03;87.71;100303.91;4972516;28;20027;-61
2023/07/05 01:41:22;;;;;;;0.80;0.60;;;;;;;17.06;87.84;100292.19;4970751;28;20557;-61
2023/07/05 01:43:49;;;;;;;1.50;0.80;;;;;;;17.05;88.22;100294.13;4972565;28;20663;-62
2023/07/05 01:46:26;;;;;;;2.67;0.90;;;;;;;17.05;88.72;100285.97;4974013;28;20452;-62
2023/07/05 01:49:27;;;;;;;5.18;0.70;;;;;;;17.06;89.19;100281.31;4970260;28;20059;-62
2023/07/05 01:52:00;;;;;;;1.30;0.77;;;;;;;17.04;89.56;100294.53;4935787;29;20063;-62
2023/07/05 01:55:00;;;;;;;1.15;0.85;;;;;;;17.06;90.08;100289.47;4954590;28;20389;-62
2023/07/05 01:57:33;;;;;;;0.90;0.90;;;;;;;17.00;89.90;100277.50;4955986;28;20403;-62
2023/07/05 02:00:05;;;;;;;;;;;;;;;16.96;90.07;100276.75;4968656;28;20476;-62
2023/07/05 02:02:40;;;;;;;1.38;0.63;;;;;;;16.91;90.64;100263.63;4972973;28;19921;-61
2023/07/05 02:05:08;;;;;;;0.68;0.60;;;;;;;16.98;90.71;100258.84;4968708;28;20776;-61
2023/07/05 02:07:34;;;;;;;5.93;0.98;;;;;;;17.05;90.30;100252.56;4983763;28;20337;-62
2023/07/05 02:10:00;;;;;;;9.73;1.02;;;;;;;17.04;90.17;100249.06;4991038;28;20029;-62
2023/07/05 02:12:26;;;;;;;0.85;0.70;;;;;;;17.06;90.03;100246.72;4972651;28;20082;-61
2023/07/05 02:14:52;;;;;;;2.50;0.90;;;;;;;17.09;90.18;100247.84;4963488;28;20488;-60
2023/07/05 02:17:19;;;;;;;1.05;0.80;;;;;;;17.09;89.88;100236.97;4972208;28;20011;-63
2023/07/05 02:19:45;;;;;;;2.75;1.00;;;;;;;17.05;90.42;100219.91;4971571;28;20113;-61
2023/07/05 02:22:11;;;;;;;0.93;0.77;;;;;;;17.06;90.44;100216.00;4974280;28;20523;-62
2023/07/05 02:24:37;;;;;;;1.48;1.38;;;;;;;17.09;90.21;100217.91;4979351;28;20034;-65
2023/07/05 02:27:02;;;;;;;1.52;1.35;;;;;;;17.06;90.59;100210.56;4973086;28;20411;-64
2023/07/05 02:29:30;;;;;;;0.93;0.70;;;;;;;17.06;90.48;100205.88;4972810;28;20047;-65
2023/07/05 02:31:59;;;;;;;1.35;1.25;;;;;;;17.06;90.57;100196.94;4966653;28;20403;-65
2023/07/05 02:34:25;;;;;;;4.55;0.85;;;;;;;17.09;90.61;100199.63;4958177;28;20137;-63
2023/07/05 02:36:51;;;;;;;2.50;1.10;;;;;;;16.88;88.87;100196.41;4978177;28;20134;-64
2023/07/05 02:39:16;;;;;;;1.55;1.23;;;;;;;16.96;89.88;100187.75;4976656;28;20082;-65
2023/07/05 02:41:42;;;;;;;1.90;0.70;;;;;;;16.98;89.39;100166.34;4979345;28;20058;-65
2023/07/05 02:44:27;;;;;;;2.30;1.00;;;;;;;17.02;89.62;100150.75;4975714;28;20050;-65
2023/07/05 02:46:53;;;;;;;1.23;0.88;;;;;;;17.07;89.50;100147.56;4931214;29;20048;-66
2023/07/05 02:49:18;;;;;;;0.88;0.77;;;;;;;17.01;89.04;100145.72;4922642;29;20050;-66
2023/07/05 02:51:44;;;;;;;2.35;1.23;;;;;;;16.98;89.28;100138.38;4934693;29;20448;-61
2023/07/05 02:54:09;;;;;;;0.98;0.80;;;;;;;17.00;88.84;100125.13;4944060;29;20034;-62
2023/07/05 02:56:35;;;;;;;1.77;1.30;;;;;;;17.01;89.07;100113.81;4933226;29;20032;-64
2023/07/05 02:59:03;;;;;;;2.45;1.17;;;;;;;17.05;88.91;100114.53;4920108;29;20044;-59
2023/07/05 03:01:29;;;;;;;1.63;0.90;;;;;;;17.04;87.99;100101.34;4927969;29;20128;-64
2023/07/05 03:03:54;;;;;;;1.98;1.13;;;;;;;17.08;87.85;100096.63;4945450;29;20525;-62
2023/07/05 03:06:20;;;;;;;1.38;0.95;;;;;;;17.13;87.52;100088.00;4941011;29;20046;-64
2023/07/05 03:08:47;;;;;;;0.77;0.73;;;;;;;17.16;86.98;100084.47;4939042;29;20045;-64
2023/07/05 03:11:13;;;;;;;1.27;0.93;;;;;;;17.19;87.04;100080.91;4915760;29;20048;-64
2023/07/05 03:13:38;;;;;;;1.90;1.00;;;;;;;17.22;87.02;100050.16;4911523;29;20028;-64
2023/07/05 03:16:05;;;;;;;1.63;0.90;;;;;;;17.17;87.01;100037.00;4923904;29;20512;-64
2023/07/05 03:18:32;;;;;;;1.70;1.33;;;;;;;17.17;87.12;100032.34;4932394;29;20545;-64
2023/07/05 03:20:57;;;;;;;1.67;1.10;;;;;;;17.23;87.21;100029.91;4947992;29;20118;-63
2023/07/05 03:23:23;;;;;;;1.75;0.90;;;;;;;17.22;86.60;100001.16;4950220;28;20069;-62
2023/07/05 03:25:54;;;;;;;1.35;1.13;;;;;;;17.07;87.62;100010.75;4969808;28;20031;-64
2023/07/05 03:28:20;;;;;;;1.48;0.80;;;;;;;17.07;87.66;100005.31;4970015;28;20034;-64
2023/07/05 03:30:53;;;;;;;2.03;1.38;;;;;;;17.14;87.77;100016.84;4970077;28;20042;-64
2023/07/05 03:33:20;;;;;;;3.38;1.00;;;;;;;17.18;87.49;100008.63;4969262;28;20066;-62
2023/07/05 03:36:00;;;;;;;1.38;0.95;;;;;;;17.15;87.77;100006.69;4972747;28;20059;-61
2023/07/05 03:38:27;;;;;;;1.63;1.08;;;;;;;17.12;86.20;100007.53;4975880;28;20030;-63
2023/07/05 03:41:05;;;;;;;1.50;0.82;;;;;;;17.18;86.25;99997.72;4974293;28;20101;-64
2023/07/05 03:43:35;;;;;;;2.35;1.00;;;;;;;17.25;86.11;99991.41;4972127;28;20066;-65
2023/07/05 03:46:03;;;;;;;1.33;0.77;;;;;;;17.30;85.56;99994.41;4981633;28;20057;-65
2023/07/05 03:48:30;;;;;;;4.05;1.30;;;;;;;17.35;85.68;99999.38;4974121;28;20031;-64
2023/07/05 03:50:58;;;;;;;1.20;1.02;;;;;;;17.32;85.36;99986.59;4971895;28;20034;-63
2023/07/05 03:53:24;;;;;;;3.15;0.90;;;;;;;17.38;84.68;99990.34;4968973;28;20463;-65
2023/07/05 03:55:49;;;;;;;1.52;0.80;;;;;;;17.40;84.49;99979.81;4973892;28;20113;-65
2023/07/05 03:58:15;;;;;;;1.58;1.20;;;;;;;17.37;84.74;99983.38;4981289;28;20053;-65
2023/07/05 04:00:40;;;;;;;1.77;1.17;;;;;;;17.46;84.40;99974.69;4978804;28;20043;-64
2023/07/05 04:03:06;;;;;;;4.20;1.38;;;;;;;17.43;84.32;99972.78;4964896;28;20050;-65
2023/07/05 04:05:32;;;;;;;2.92;1.48;;;;;;;17.53;84.18;99982.75;4980030;28;20057;-65
2023/07/05 04:07:57;;;;;;;2.05;1.23;;;;;;;17.45;84.12;99982.06;4976667;28;20043;-64
2023/07/05 04:10:23;;;;;;;1.00;0.90;;;;;;;17.45;84.09;99975.84;4975238;28;20118;-65
2023/07/05 04:12:49;;;;;;;1.17;0.90;;;;;;;17.51;84.23;99988.59;4970111;28;20027;-65
2023/07/05 04:15:15;;;;;;;1.38;0.88;;;;;;;17.54;83.21;99981.53;4974093;28;20022;-64
2023/07/05 04:17:40;;;;;;;1.05;0.82;;;;;;;17.50;83.70;99984.34;4970966;28;20054;-64
2023/07/05 04:20:08;;;;;;;1.95;1.13;;;;;;;17.50;83.54;99978.88;4969571;28;20046;-65
2023/07/05 04:22:39;;;;;;;1.58;1.02;;;;;;;17.37;85.78;99975.22;4976407;28;20037;-65
2023/07/05 04:25:05;;;;;;;1.40;1.13;;;;;;;17.43;85.55;99968.09;4973275;28;20736;-65
2023/07/05 04:27:33;;;;;;;1.67;0.98;;;;;;;17.37;86.26;99963.56;4981986;28;20305;-65
2023/07/05 04:29:58;;;;;;;1.10;1.00;;;;;;;17.28;87.09;99953.22;4975267;28;20011;-65
2023/07/05 04:32:24;;;;;;;1.65;0.88;;;;;;;17.32;87.06;99947.72;4973776;28;20856;-65
2023/07/05 04:34:49;;;;;;;1.33;1.20;;;;;;;17.36;87.45;99951.13;4989196;28;20038;-63
2023/07/05 04:37:14;;;;;;;2.15;1.20;;;;;;;17.26;89.66;99949.38;4981915;28;20027;-65
2023/07/05 04:39:40;;;;;;;1.10;0.90;;;;;;;17.23;89.90;99942.81;4983027;28;20391;-65
2023/07/05 04:42:08;;;;;;;3.03;0.98;;;;;;;17.23;90.06;99944.78;4968799;28;20388;-63
2023/07/05 04:44:34;;;;;;;2.13;1.20;;;;;;;17.35;89.95;99963.97;4979459;28;20038;-65
2023/07/05 04:46:59;;;;;;;2.38;1.27;;;;;;;17.24;89.26;99957.97;4985427;28;20471;-66
2023/07/05 04:49:25;;;;;;;1.20;0.93;;;;;;;17.21;90.36;99945.19;4982174;28;20113;-66
2023/07/05 04:51:50;;;;;;;2.72;1.52;;;;;;;17.18;90.68;99932.41;4972892;28;20089;-65
2023/07/05 04:54:16;;;;;;;2.25;1.35;;;;;;;17.21;90.68;99931.56;4982305;28;20023;-66
2023/07/05 04:56:42;;;;;;;3.30;1.38;;;;;;;17.02;91.79;99924.91;4973967;28;20046;-62
2023/07/05 04:59:10;;;;;;;1.92;1.02;;;;;;;17.10;91.52;99917.41;4985030;28;20492;-65
2023/07/05 05:01:37;;;;;;;4.50;1.30;;;;;;;17.17;92.35;99919.22;4975585;28;20121;-65
2023/07/05 05:04:03;;;;;;;2.80;1.48;;;;;;;17.10;91.80;99920.13;4967062;28;20491;-61
2023/07/05 05:06:29;;;;;;;1.58;1.10;;;;;;;17.14;92.09;99915.38;4966623;28;20030;-64
2023/07/05 05:08:55;;;;;;;3.53;1.25;;;;;;;17.00;93.47;99916.41;4968812;28;20145;-65
2023/07/05 05:11:20;;;;;;;1.75;1.15;;;;;;;16.90;93.91;99913.84;4967296;28;20026;-65
2023/07/05 05:13:49;;;;;;;1.70;1.05;;;;;;;16.90;94.17;99930.19;4956935;28;20566;-65
2023/07/05 05:16:14;;;;;;;2.50;1.50;;;;;;;17.07;93.42;99929.88;4963815;28;20047;-66
2023/07/05 05:18:40;;;;;;;4.68;1.30;;;;;;;16.79;95.11;99924.16;4978712;28;20026;-65
2023/07/05 05:21:05;;;;;;;2.38;1.30;;;;;;;16.83;95.95;99917.50;4969395;28;20043;-65
2023/07/05 05:23:31;;;;;;;2.38;1.63;;;;;;;16.96;94.27;99917.66;4959391;28;20085;-65
2023/07/05 05:25:57;;;;;;;2.90;1.50;;;;;;;16.99;94.34;99916.81;4961290;28;20038;-65
2023/07/05 05:28:22;;;;;;;1.70;1.13;;;;;;;17.01;94.35;99928.06;4968596;28;20052;-65
2023/07/05 05:30:49;;;;;;;1.67;1.40;;;;;;;17.02;93.88;99915.97;4970045;28;20053;-66
2023/07/05 05:33:18;;;;;;;2.13;1.42;;;;;;;17.00;94.51;99910.97;4964032;28;20046;-66
2023/07/05 05:35:51;;;;;;;1.58;1.38;;;;;;;17.04;94.17;99903.50;4969326;28;20368;-66
2023/07/05 05:38:18;;;;;;;7.15;1.60;;;;;;;16.89;94.32;99910.38;4970959;28;20041;-63
2023/07/05 05:40:43;;;;;;;1.48;1.35;;;;;;;16.80;95.22;99903.97;4968637;28;20506;-65
2023/07/05 05:43:09;;;;;;;2.13;1.58;;;;;;;16.81;94.82;99887.22;4973952;28;20038;-66
2023/07/05 05:45:34;;;;;;;1.85;1.25;;;;;;;16.86;95.20;99878.56;4982103;28;20093;-66
2023/07/05 05:48:00;;;;;;;1.45;1.08;;;;;;;16.71;95.97;99877.28;4972690;28;20463;-64
2023/07/05 05:50:25;;;;;;;2.83;1.23;;;;;;;16.71;96.38;99862.91;4969839;28;20018;-65
2023/07/05 05:52:51;;;;;;;1.70;1.17;;;;;;;16.68;96.39;99869.19;4971749;28;20114;-65
2023/07/05 05:55:17;;;;;;;2.03;1.25;;;;;;;16.84;96.32;99861.88;4971355;28;20062;-65
2023/07/05 05:57:43;;;;;;;2.53;1.70;;;;;;;16.81;96.34;99856.53;4969039;28;20134;-66
2023/07/05 06:00:09;;;;;;;3.50;1.05;;;;;;;16.88;96.04;99840.06;4980133;28;20857;-64
2023/07/05 06:02:36;;;;;;;1.83;1.27;;;;;;;16.78;97.13;99846.50;4979330;28;20113;-65
2023/07/05 06:05:03;;;;;;;1.95;1.38;;;;;;;16.71;98.09;99841.16;4974677;28;20118;-64
2023/07/05 06:07:28;;;;;;;3.58;1.60;;;;;;;16.83;97.60;99835.88;4975926;28;20031;-64
2023/07/05 06:09:54;;;;;;;1.48;1.15;;;;;;;16.75;98.05;99830.97;4977338;28;20632;-65
2023/07/05 06:12:21;;;;;;;2.35;1.23;;;;;;;16.89;97.43;99831.50;4970075;28;20054;-62
2023/07/05 06:14:46;;;;;;;1.55;1.20;;;;;;;16.82;97.72;99822.72;4971940;28;20054;-65
2023/07/05 06:17:12;;;;;;;1.88;1.30;;;;;;;16.92;97.59;99802.69;4979622;28;20085;-65
2023/07/05 06:19:38;;;;;;;2.88;1.42;;;;;;;16.55;99.76;99803.00;4981342;28;20034;-65
2023/07/05 06:22:03;;;;;;;2.95;1.58;;;;;;;16.70;99.43;99802.34;4969610;28;20027;-64
2023/07/05 06:24:31;;;;;;;1.92;1.48;;;;;;;16.74;99.30;99799.56;4973731;28;20066;-65
2023/07/05 06:26:56;;;;;;;2.80;1.30;;;;;;;16.80;99.12;99797.88;4969392;28;20123;-65
2023/07/05 06:29:22;;;;;;;1.48;1.10;;;;;;;16.92;98.08;99797.25;4978133;28;20121;-66
2023/07/05 06:31:47;;;;;;;3.35;1.45;;;;;;;16.90;98.69;99797.66;4972998;28;20097;-65
2023/07/05 06:34:13;;;;;;;1.38;1.13;;;;;;;16.86;99.06;99793.50;4979858;28;20063;-66
2023/07/05 06:36:38;;;;;;;2.58;1.50;;;;;;;16.98;98.79;99799.06;4973184;28;20034;-65
2023/07/05 06:39:04;;;;;;;3.35;2.08;;;;;;;16.90;99.14;99796.91;4966005;28;20041;-65
2023/07/05 06:41:29;;;;;;;3.00;1.55;;;;;;;16.95;98.85;99788.25;4970364;28;20073;-65
2023/07/05 06:43:54;;;;;;;1.73;1.38;;;;;;;17.09;98.68;99798.88;4974596;28;20443;-66
2023/07/05 06:46:20;;;;;;;3.42;2.00;;;;;;;16.96;99.00;99797.94;4973034;28;20475;-63
2023/07/05 06:48:45;;;;;;;2.22;1.15;;;;;;;16.97;99.11;99788.63;4975747;28;20268;-66
2023/07/05 06:51:11;;;;;;;2.08;1.45;;;;;;;16.99;99.33;99799.84;4979309;28;20038;-66
2023/07/05 06:53:36;;;;;;;2.33;1.40;;;;;;;16.78;99.69;99808.41;4977866;28;20035;-65
2023/07/05 06:56:02;;;;;;;2.25;1.60;;;;;;;16.67;100.00;99805.88;4972655;28;20434;-65
2023/07/05 06:58:27;;;;;;;2.53;1.60;;;;;;;16.57;100.00;99806.09;4971527;28;20037;-65
2023/07/05 07:00:53;;;;;;;3.30;1.80;;;;;;;16.67;100.00;99805.88;4974945;28;20487;-66
2023/07/05 07:03:18;;;;;;;2.50;1.90;;;;;;;16.61;100.00;99802.09;4978073;28;20034;-64
2023/07/05 07:05:50;;;;;;;3.28;1.83;;;;;;;16.76;100.00;99803.38;4971491;28;20081;-67
2023/07/05 07:08:15;;;;;;;2.72;1.92;;;;;;;16.82;100.00;99788.09;4970746;28;20077;-64
2023/07/05 07:10:41;;;;;;;2.78;1.73;;;;;;;16.96;100.00;99787.06;4961944;28;20066;-66
2023/07/05 07:13:06;;;;;;;2.22;1.27;;;;;;;16.88;100.00;99766.63;4975427;28;20035;-67
2023/07/05 07:15:31;;;;;;;2.55;1.42;;;;;;;16.94;100.00;99759.50;4975382;28;20034;-67
2023/07/05 07:17:57;;;;;;;3.08;1.40;;;;;;;16.90;100.00;99753.38;4965267;28;20470;-66
2023/07/05 07:20:25;;;;;;;4.93;1.50;;;;;;;16.98;100.00;99750.09;4963579;28;20034;-65
2023/07/05 07:22:51;;;;;;;4.00;1.48;;;;;;;16.84;100.00;99742.22;4969942;28;20085;-66
2023/07/05 07:25:16;;;;;;;3.53;1.52;;;;;;;16.81;100.00;99725.97;4967046;28;20042;-66
2023/07/05 07:27:41;;;;;;;2.47;1.27;;;;;;;16.98;100.00;99762.94;4967462;28;20039;-66
2023/07/05 07:30:07;;;;;;;4.00;2.17;;;;;;;17.01;100.00;99756.66;4963911;28;20647;-65
2023/07/05 07:32:33;;;;;;;5.22;1.75;;;;;;;17.05;100.00;99758.09;4973002;28;20154;-67
2023/07/05 07:34:58;;;;;;;2.90;1.63;;;;;;;17.01;100.00;99767.53;4974379;28;20038;-66
2023/07/05 07:37:23;;;;;;;1.30;0.93;;;;;;;17.01;100.00;99759.38;4972944;28;20049;-66
2023/07/05 07:39:49;;;;;;;1.45;1.10;;;;;;;17.01;100.00;99773.00;4974458;28;20495;-66
2023/07/05 07:42:14;;;;;;;2.20;1.25;;;;;;;17.14;100.00;99763.75;4967439;28;20039;-62
2023/07/05 07:44:40;;;;;;;2.75;1.70;;;;;;;17.30;100.00;99771.22;4977114;28;20053;-64
2023/07/05 07:47:06;;;;;;;2.22;1.48;;;;;;;17.42;100.00;99769.78;4963857;28;20475;-65
2023/07/05 07:49:31;;;;;;;2.72;1.67;;;;;;;17.24;100.00;99767.44;4979343;28;20026;-67
2023/07/05 07:51:57;;;;;;;2.22;1.38;;;;;;;17.28;100.00;99756.47;4979973;28;20093;-66
2023/07/05 07:54:26;;;;;;;2.63;1.58;;;;;;;17.38;100.00;99760.94;4972474;28;20045;-65
2023/07/05 07:56:54;;;;;;;4.03;1.75;;;;;;;17.40;100.00;99755.84;4978638;28;20069;-66
2023/07/05 07:59:19;;;;;;;2.58;1.38;;;;;;;17.33;100.00;99764.91;4984071;28;20248;-63
2023/07/05 08:01:45;;;;;;;1.90;1.33;;;;;;;17.50;100.00;99758.34;4968289;28;20073;-65
2023/07/05 08:04:12;;;;;;;3.00;1.60;;;;;;;17.51;100.00;99761.84;4978110;28;20102;-66
2023/07/05 08:06:41;;;;;;;5.13;2.47;;;;;;;17.34;100.00;99765.69;4982531;28;20035;-66
2023/07/05 08:09:09;;;;;;;3.03;1.95;;;;;;;17.42;100.00;99765.09;4970455;28;20034;-65
2023/07/05 08:11:36;;;;;;;4.45;2.25;;;;;;;17.63;100.00;99774.78;4963052;28;20026;-66
2023/07/05 08:14:01;;;;;;;4.95;1.50;;;;;;;17.71;100.00;99768.00;4973788;28;20441;-67
2023/07/05 08:16:27;;;;;;;3.92;1.25;;;;;;;17.65;100.00;99783.31;4968129;28;20130;-66
2023/07/05 08:18:53;;;;;;;5.72;1.67;;;;;;;17.60;100.00;99778.34;4973672;28;20030;-67
2023/07/05 08:21:18;;;;;;;2.55;1.70;;;;;;;17.56;100.00;99774.94;4969032;28;20627;-66
2023/07/05 08:23:45;;;;;;;3.85;1.85;;;;;;;17.43;100.00;99782.19;4968240;28;20109;-67
2023/07/05 08:26:11;;;;;;;2.15;1.33;;;;;;;17.45;100.00;99775.16;4971580;28;20463;-67
2023/07/05 08:28:37;;;;;;;3.70;1.67;;;;;;;17.45;100.00;99769.72;4973897;28;20050;-67
2023/07/05 08:31:04;;;;;;;2.25;1.65;;;;;;;17.56;100.00;99778.44;4976611;28;20166;-67
2023/07/05 08:33:31;;;;;;;4.47;1.90;;;;;;;17.59;100.00;99780.31;4968710;28;20399;-67
2023/07/05 08:36:17;;;;;;;2.50;1.70;;;;;;;17.67;100.00;99767.31;4969125;28;20031;-67
2023/07/05 08:38:48;;;;;;;1.95;1.13;;;;;;;17.74;100.00;99767.13;4972336;28;20043;-67
2023/07/05 08:41:23;;;;;;;2.20;1.65;;;;;;;17.73;100.00;99763.63;4964970;28;20466;-65
2023/07/05 08:44:16;;;;;;;2.67;1.63;;;;;;;17.98;100.00;99768.53;4997372;23;20081;-71
2023/07/05 08:46:45;;;;;;;2.20;1.48;;;;;;;18.11;100.00;99765.84;4973956;28;20564;-69
2023/07/05 08:49:23;;;;;;;2.95;1.33;;;;;;;18.13;100.00;99758.78;5004306;28;20482;-71
2023/07/05 08:51:50;;;;;;;3.20;1.52;;;;;;;18.36;100.00;99764.03;4986968;28;20546;-71
2023/07/05 08:54:16;;;;;;;2.40;1.40;;;;;;;18.42;100.00;99764.28;4977893;28;20034;-71
2023/07/05 08:56:59;;;;;;;3.20;1.90;;;;;;;18.42;100.00;99759.63;4976110;28;20030;-69
2023/07/05 08:59:30;;;;;;;2.80;1.40;;;;;;;18.60;100.00;99775.53;4976825;28;20063;-71
2023/07/05 09:01:57;;;;;;;1.63;1.20;;;;;;;18.74;100.00;99775.91;4980302;28;20052;-71
2023/07/05 09:04:47;;;;;;;2.55;1.13;;;;;;;18.89;100.00;99771.56;4978258;28;20057;-69
2023/07/05 09:07:42;;;;;;;3.70;1.20;;;;;;;18.80;100.00;99773.41;4932315;29;20051;-71
2023/07/05 09:10:24;;;;;;;1.88;0.95;;;;;;;18.96;100.00;99776.09;4930267;29;20078;-72
2023/07/05 09:13:04;;;;;;;2.15;1.27;;;;;;;19.03;100.00;99766.94;4944226;29;20062;-71
2023/07/05 09:15:38;;;;;;;3.50;1.17;;;;;;;19.25;100.00;99787.72;4923062;29;20036;-67
2023/07/05 09:18:28;;;;;;;1.45;1.10;;;;;;;19.38;100.00;99802.19;4930610;29;20039;-68
2023/07/05 09:21:02;;;;;;;1.77;1.08;;;;;;;19.54;100.00;99791.19;4923085;29;20123;-67
2023/07/05 09:23:57;;;;;;;1.10;0.90;;;;;;;19.51;100.00;99792.03;4927293;29;20051;-69
2023/07/05 09:26:38;;;;;;;0.90;0.70;;;;;;;19.60;93.34;99788.66;4862086;29;20060;-69
2023/07/05 09:29:14;;;;;;;0.85;0.57;;;;;;;19.82;94.74;99819.63;4921422;29;20130;-68
2023/07/05 09:31:41;;;;;;;1.02;0.80;;;;;;;19.85;89.54;99837.84;4929485;29;20604;-66
2023/07/05 09:34:32;;;;;;;1.35;0.73;;;;;;;20.11;88.94;99835.88;4930309;29;20019;-69
2023/07/05 09:37:01;;;;;;;1.07;0.67;;;;;;;20.45;87.75;99833.22;4936756;29;20482;-68
2023/07/05 09:39:38;;;;;;;0.52;0.50;;;;;;;20.46;83.25;99815.63;4929840;29;20716;-69
2023/07/05 09:42:11;;;;;;;1.40;0.73;;;;;;;20.88;84.24;99825.09;4935766;29;20456;-67
2023/07/05 09:44:36;;;;;;;1.17;0.75;;;;;;;21.34;83.74;99826.19;4963495;28;20050;-68
2023/07/05 09:47:02;;;;;;;1.00;0.70;;;;;;;21.54;81.81;99846.53;5001308;28;20498;-66
2023/07/05 09:49:28;;;;;;;0.73;0.65;;;;;;;21.64;75.93;99828.16;4959654;28;20035;-69
2023/07/05 09:51:54;;;;;;;1.10;0.68;;;;;;;21.86;76.55;99836.34;4970913;28;20074;-67
2023/07/05 09:54:29;;;;;;;0.88;0.55;;;;;;;22.07;72.46;99849.22;4972868;28;20467;-69
2023/07/05 09:57:04;;;;;;;1.27;0.70;;;;;;;22.06;72.21;99834.00;4972314;28;20041;-69
2023/07/05 09:59:32;;;;;;;1.30;1.00;;;;;;;22.28;71.96;99834.66;4971259;28;20107;-69
2023/07/05 10:02:10;;;;;;;0.70;0.40;;;;;;;22.58;71.15;99847.56;4972719;28;20098;-69
2023/07/05 10:04:44;;;;;;;0.68;0.57;;;;;;;22.62;71.02;99855.66;4969115;28;20321;-69
2023/07/05 10:07:22;;;;;;;2.35;0.70;;;;;;;22.34;67.76;99838.34;4971971;28;20037;-68
2023/07/05 10:10:00;;;;;;;0.45;0.45;;;;;;;22.30;64.72;99845.94;4974333;28;20046;-70
2023/07/05 10:12:52;;;;;;;1.08;0.50;;;;;;;22.42;63.53;99848.56;4971037;28;20039;-69
2023/07/05 10:15:23;;;;;;;2.67;0.57;;;;;;;22.73;64.44;99839.47;4896321;29;20043;-69
2023/07/05 10:17:51;;;;;;;;;;;;;;;22.53;64.00;99842.63;4897619;29;20453;-69
2023/07/05 10:20:17;;;;;;;1.08;0.50;;;;;;;22.40;63.80;99839.25;4909712;29;19915;-69
2023/07/05 10:22:43;;;;;;;1.20;0.60;;;;;;;22.73;63.67;99840.25;4891273;29;20092;-66
2023/07/05 10:25:18;;;;;;;0.45;0.40;;;;;;;23.07;60.37;99848.16;4910244;29;20043;-66
2023/07/05 10:27:49;;;;;;;1.23;0.55;;;;;;;23.27;60.96;99842.97;4912335;29;20040;-66
2023/07/05 10:30:16;;;;;;;;;;;;;;;23.16;59.75;99856.41;4916858;29;20043;-65
2023/07/05 10:32:45;;;;;;;2.25;0.50;;;;;;;22.99;57.84;99852.47;4914231;29;20399;-66
2023/07/05 10:35:27;;;;;;;1.42;0.52;;;;;;;22.98;59.60;99841.91;4909846;29;20111;-65
2023/07/05 10:37:53;;;;;;;2.47;0.57;;;;;;;22.97;55.93;99845.91;4920749;29;20481;-65
2023/07/05 10:40:23;;;;;;;0.63;0.63;;;;;;;23.11;56.33;99845.28;4915306;29;20134;-67
2023/07/05 10:42:54;;;;;;;0.60;0.47;;;;;;;23.11;56.82;99840.53;4916759;29;20081;-66
2023/07/05 10:45:34;;;;;;;0.45;0.45;;;;;;;22.88;57.06;99841.16;4886999;29;20048;-66
2023/07/05 10:48:01;;;;;;;0.50;0.50;;;;;;;23.02;58.68;99846.03;4912397;29;20067;-66
2023/07/05 10:50:31;;;;;;;0.40;0.38;;;;;;;22.97;56.98;99838.44;4911616;29;20044;-68
2023/07/05 10:53:02;;;;;;;0.80;0.40;;;;;;;23.17;58.05;99846.19;4945444;28;20122;-67
2023/07/05 10:55:40;;;;;;;0.70;0.40;;;;;;;23.03;58.59;99839.34;4972716;28;20050;-67
2023/07/05 10:58:12;;;;;;;0.50;0.50;;;;;;;22.92;56.20;99847.25;4964513;28;20030;-69
2023/07/05 11:00:41;;;;;;;0.43;0.20;;;;;;;22.35;57.06;99845.34;4975383;28;20038;-69
2023/07/05 11:03:12;;;;;;;1.13;0.40;;;;;;;22.36;57.37;99850.38;4986619;28;20399;-67
2023/07/05 11:05:58;;;;;;;1.58;0.50;;;;;;;21.98;57.10;99846.47;4990148;28;20044;-69
2023/07/05 11:08:30;;;;;;;0.93;0.35;;;;;;;22.29;57.96;99850.69;4964337;28;20047;-67
2023/07/05 11:11:00;;;;;;;0.93;0.22;;;;;;;22.42;58.52;99850.56;4969738;28;20586;-67
2023/07/05 11:13:27;;;;;;;0.50;0.40;;;;;;;22.40;54.92;99866.72;4970361;28;20035;-67
2023/07/05 11:16:13;;;;;;;0.82;0.45;;;;;;;22.36;54.23;99861.38;4967251;28;20026;-69
2023/07/05 11:18:39;;;;;;;0.28;0.25;;;;;;;22.28;54.66;99864.84;4888080;29;20055;-68
2023/07/05 11:21:06;;;;;;;0.35;0.28;;;;;;;22.24;54.37;99865.00;4872759;29;20053;-67
2023/07/05 11:23:40;;;;;;;0.20;0.17;;;;;;;21.79;54.11;99861.28;4889968;29;20048;-69
2023/07/05 11:26:06;;;;;;;1.88;0.43;;;;;;;21.81;56.85;99878.09;4885732;29;20078;-68
2023/07/05 11:28:35;;;;;;;0.57;0.30;;;;;;;22.26;56.02;99876.28;4893826;29;20032;-68
2023/07/05 11:31:02;;;;;;;0.50;0.30;;;;;;;22.76;55.40;99874.28;4895793;29;20510;-67
2023/07/05 11:33:28;;;;;;;0.22;0.15;;;;;;;23.19;52.65;99874.72;4879081;29;20108;-69
2023/07/05 11:35:57;;;;;;;0.85;0.50;;;;;;;23.30;52.47;99897.03;4900623;29;20612;-68
2023/07/05 11:38:40;;;;;;;0.85;0.40;;;;;;;23.28;51.60;99891.22;4896847;29;20045;-67